sensor_id;sensor_type;location;lat;lon;timestamp;temperature;humidity
60309;DHT22;50313;52.894;6.492;2022-07-29T00:02:08;14.70;99.90
60309;DHT22;50313;52.894;6.492;2022-07-29T00:04:35;14.70;99.90
60309;DHT22;50313;52.894;6.492;2022-07-29T00:07:01;14.70;99.90
60309;DHT22;50313;52.894;6.492;2022-07-29T00:09:27;14.70;99.90
60309;DHT22;50313;52.894;6.492;2022-07-29T00:11:54;14.70;99.90
60309;DHT22;50313;52.894;6.492;2022-07-29T00:14:21;14.70;99.90
60309;DHT22;50313;52.894;6.492;2022-07-29T00:16:47;14.70;99.90
60309;DHT22;50313;52.894;6.492;2022-07-29T00:19:15;14.70;99.90
60309;DHT22;50313;52.894;6.492;2022-07-29T00:21:41;14.70;99.90
60309;DHT22;50313;52.894;6.492;2022-07-29T00:24:07;14.70;99.90
60309;DHT22;50313;52.894;6.492;2022-07-29T00:26:33;14.70;99.90
60309;DHT22;50313;52.894;6.492;2022-07-29T00:29:00;14.70;99.90
60309;DHT22;50313;52.894;6.492;2022-07-29T00:31:25;14.70;99.90
60309;DHT22;50313;52.894;6.492;2022-07-29T00:33:51;14.70;99.90
60309;DHT22;50313;52.894;6.492;2022-07-29T00:36:17;14.70;99.90
60309;DHT22;50313;52.894;6.492;2022-07-29T00:38:43;14.80;99.90
60309;DHT22;50313;52.894;6.492;2022-07-29T00:41:11;14.70;99.90
60309;DHT22;50313;52.894;6.492;2022-07-29T00:43:37;14.70;99.90
60309;DHT22;50313;52.894;6.492;2022-07-29T00:46:03;14.70;99.90
60309;DHT22;50313;52.894;6.492;2022-07-29T00:48:29;14.70;99.90
60309;DHT22;50313;52.894;6.492;2022-07-29T00:50:57;14.70;99.90
60309;DHT22;50313;52.894;6.492;2022-07-29T00:53:23;14.70;99.90
60309;DHT22;50313;52.894;6.492;2022-07-29T00:55:50;14.70;99.90
60309;DHT22;50313;52.894;6.492;2022-07-29T00:58:16;14.70;99.90
60309;DHT22;50313;52.894;6.492;2022-07-29T01:00:42;14.70;99.90
60309;DHT22;50313;52.894;6.492;2022-07-29T01:03:08;14.60;99.90
60309;DHT22;50313;52.894;6.492;2022-07-29T01:05:34;14.70;99.90
60309;DHT22;50313;52.894;6.492;2022-07-29T01:08:01;14.70;99.90
60309;DHT22;50313;52.894;6.492;2022-07-29T01:10:28;14.70;99.90
60309;DHT22;50313;52.894;6.492;2022-07-29T01:12:57;14.60;99.90
60309;DHT22;50313;52.894;6.492;2022-07-29T01:15:24;14.60;99.90
60309;DHT22;50313;52.894;6.492;2022-07-29T01:21:02;14.60;99.90
60309;DHT22;50313;52.894;6.492;2022-07-29T01:26:33;14.60;99.90
60309;DHT22;50313;52.894;6.492;2022-07-29T01:31:55;14.70;99.90
60309;DHT22;50313;52.894;6.492;2022-07-29T01:34:25;14.70;99.90
60309;DHT22;50313;52.894;6.492;2022-07-29T01:37:06;14.70;99.90
60309;DHT22;50313;52.894;6.492;2022-07-29T01:39:36;14.70;99.90
60309;DHT22;50313;52.894;6.492;2022-07-29T01:42:15;14.70;99.90
60309;DHT22;50313;52.894;6.492;2022-07-29T01:47:20;14.70;99.90
60309;DHT22;50313;52.894;6.492;2022-07-29T01:49:51;14.70;99.90
60309;DHT22;50313;52.894;6.492;2022-07-29T01:52:27;14.70;99.90
60309;DHT22;50313;52.894;6.492;2022-07-29T01:54:59;14.70;99.90
60309;DHT22;50313;52.894;6.492;2022-07-29T01:57:29;14.70;99.90
60309;DHT22;50313;52.894;6.492;2022-07-29T01:59:58;14.70;99.90
60309;DHT22;50313;52.894;6.492;2022-07-29T02:02:26;14.70;99.90
60309;DHT22;50313;52.894;6.492;2022-07-29T02:04:54;14.70;99.90
60309;DHT22;50313;52.894;6.492;2022-07-29T02:07:22;14.70;99.90
60309;DHT22;50313;52.894;6.492;2022-07-29T02:09:50;14.70;99.90
60309;DHT22;50313;52.894;6.492;2022-07-29T02:12:18;14.70;99.90
60309;DHT22;50313;52.894;6.492;2022-07-29T02:14:48;14.70;99.90
60309;DHT22;50313;52.894;6.492;2022-07-29T02:17:22;14.70;99.90
60309;DHT22;50313;52.894;6.492;2022-07-29T02:19:49;14.70;99.90
60309;DHT22;50313;52.894;6.492;2022-07-29T02:22:16;14.70;99.90
60309;DHT22;50313;52.894;6.492;2022-07-29T02:24:44;14.70;99.90
60309;DHT22;50313;52.894;6.492;2022-07-29T02:27:10;14.70;99.90
60309;DHT22;50313;52.894;6.492;2022-07-29T02:29:37;14.70;99.90
60309;DHT22;50313;52.894;6.492;2022-07-29T02:32:07;14.70;99.90
60309;DHT22;50313;52.894;6.492;2022-07-29T02:34:33;14.70;99.90
60309;DHT22;50313;52.894;6.492;2022-07-29T02:37:00;14.70;99.90
60309;DHT22;50313;52.894;6.492;2022-07-29T02:39:29;14.70;99.90
60309;DHT22;50313;52.894;6.492;2022-07-29T02:41:59;14.80;99.90
60309;DHT22;50313;52.894;6.492;2022-07-29T02:44:27;14.70;99.90
60309;DHT22;50313;52.894;6.492;2022-07-29T02:57:41;14.80;99.90
60309;DHT22;50313;52.894;6.492;2022-07-29T03:00:09;14.70;99.90
60309;DHT22;50313;52.894;6.492;2022-07-29T03:02:40;14.80;99.90
60309;DHT22;50313;52.894;6.492;2022-07-29T03:05:11;14.70;99.90
60309;DHT22;50313;52.894;6.492;2022-07-29T03:07:38;14.80;99.90
60309;DHT22;50313;52.894;6.492;2022-07-29T03:10:07;14.80;99.90
60309;DHT22;50313;52.894;6.492;2022-07-29T03:12:34;14.80;99.90
60309;DHT22;50313;52.894;6.492;2022-07-29T03:15:01;14.80;99.90
60309;DHT22;50313;52.894;6.492;2022-07-29T03:17:27;14.80;99.90
60309;DHT22;50313;52.894;6.492;2022-07-29T03:19:53;14.80;99.90
60309;DHT22;50313;52.894;6.492;2022-07-29T03:22:20;14.80;99.90
60309;DHT22;50313;52.894;6.492;2022-07-29T03:24:46;14.70;99.90
60309;DHT22;50313;52.894;6.492;2022-07-29T03:27:11;14.70;99.90
60309;DHT22;50313;52.894;6.492;2022-07-29T03:29:37;14.70;99.90
60309;DHT22;50313;52.894;6.492;2022-07-29T03:32:04;14.60;99.90
60309;DHT22;50313;52.894;6.492;2022-07-29T03:34:30;14.60;99.90
60309;DHT22;50313;52.894;6.492;2022-07-29T03:36:56;14.60;99.90
60309;DHT22;50313;52.894;6.492;2022-07-29T03:39:25;14.60;99.90
60309;DHT22;50313;52.894;6.492;2022-07-29T03:41:55;14.50;99.90
60309;DHT22;50313;52.894;6.492;2022-07-29T03:44:23;14.50;99.90
60309;DHT22;50313;52.894;6.492;2022-07-29T03:46:50;14.50;99.90
60309;DHT22;50313;52.894;6.492;2022-07-29T03:49:18;14.50;99.90
60309;DHT22;50313;52.894;6.492;2022-07-29T03:51:45;14.50;99.90
60309;DHT22;50313;52.894;6.492;2022-07-29T03:54:11;14.50;99.90
60309;DHT22;50313;52.894;6.492;2022-07-29T03:56:43;14.40;99.90
60309;DHT22;50313;52.894;6.492;2022-07-29T03:59:13;14.40;99.90
60309;DHT22;50313;52.894;6.492;2022-07-29T04:01:41;14.50;99.90
60309;DHT22;50313;52.894;6.492;2022-07-29T04:04:07;14.50;99.90
60309;DHT22;50313;52.894;6.492;2022-07-29T04:06:44;14.50;99.90
60309;DHT22;50313;52.894;6.492;2022-07-29T04:09:10;14.50;99.90
60309;DHT22;50313;52.894;6.492;2022-07-29T04:11:38;14.50;99.90
60309;DHT22;50313;52.894;6.492;2022-07-29T04:14:04;14.50;99.90
60309;DHT22;50313;52.894;6.492;2022-07-29T04:16:29;14.50;99.90
60309;DHT22;50313;52.894;6.492;2022-07-29T04:18:55;14.50;99.90
60309;DHT22;50313;52.894;6.492;2022-07-29T04:21:21;14.50;99.90
60309;DHT22;50313;52.894;6.492;2022-07-29T04:23:47;14.50;99.90
60309;DHT22;50313;52.894;6.492;2022-07-29T04:26:19;14.50;99.90
60309;DHT22;50313;52.894;6.492;2022-07-29T04:28:45;14.50;99.90
60309;DHT22;50313;52.894;6.492;2022-07-29T04:31:12;14.50;99.90
60309;DHT22;50313;52.894;6.492;2022-07-29T04:33:38;14.50;99.90
60309;DHT22;50313;52.894;6.492;2022-07-29T04:36:04;14.50;99.90
60309;DHT22;50313;52.894;6.492;2022-07-29T04:38:30;14.50;99.90
60309;DHT22;50313;52.894;6.492;2022-07-29T04:40:56;14.50;99.90
60309;DHT22;50313;52.894;6.492;2022-07-29T04:43:22;14.50;99.90
60309;DHT22;50313;52.894;6.492;2022-07-29T04:45:48;14.50;99.90
60309;DHT22;50313;52.894;6.492;2022-07-29T04:48:13;14.50;99.90
60309;DHT22;50313;52.894;6.492;2022-07-29T04:50:40;14.50;99.90
60309;DHT22;50313;52.894;6.492;2022-07-29T04:53:06;14.50;99.90
60309;DHT22;50313;52.894;6.492;2022-07-29T04:55:33;14.50;99.90
60309;DHT22;50313;52.894;6.492;2022-07-29T04:57:58;14.50;99.90
60309;DHT22;50313;52.894;6.492;2022-07-29T05:00:24;14.50;99.90
60309;DHT22;50313;52.894;6.492;2022-07-29T05:02:50;14.50;99.90
60309;DHT22;50313;52.894;6.492;2022-07-29T05:05:15;14.50;99.90
60309;DHT22;50313;52.894;6.492;2022-07-29T05:07:41;14.50;99.90
60309;DHT22;50313;52.894;6.492;2022-07-29T05:10:07;14.40;99.90
60309;DHT22;50313;52.894;6.492;2022-07-29T05:12:33;14.50;99.90
60309;DHT22;50313;52.894;6.492;2022-07-29T05:14:59;14.40;99.90
60309;DHT22;50313;52.894;6.492;2022-07-29T05:17:25;14.50;99.90
60309;DHT22;50313;52.894;6.492;2022-07-29T05:19:50;14.50;99.90
60309;DHT22;50313;52.894;6.492;2022-07-29T05:22:19;14.50;99.90
60309;DHT22;50313;52.894;6.492;2022-07-29T05:24:46;14.50;99.90
60309;DHT22;50313;52.894;6.492;2022-07-29T05:27:11;14.50;99.90
60309;DHT22;50313;52.894;6.492;2022-07-29T05:29:37;14.50;99.90
60309;DHT22;50313;52.894;6.492;2022-07-29T05:32:04;14.50;99.90
60309;DHT22;50313;52.894;6.492;2022-07-29T05:34:30;14.50;99.90
60309;DHT22;50313;52.894;6.492;2022-07-29T05:36:56;14.50;99.90
60309;DHT22;50313;52.894;6.492;2022-07-29T05:39:22;14.50;99.90
60309;DHT22;50313;52.894;6.492;2022-07-29T05:41:48;14.60;99.90
60309;DHT22;50313;52.894;6.492;2022-07-29T05:44:13;14.60;99.90
60309;DHT22;50313;52.894;6.492;2022-07-29T05:46:39;14.60;99.90
60309;DHT22;50313;52.894;6.492;2022-07-29T05:49:05;14.60;99.90
60309;DHT22;50313;52.894;6.492;2022-07-29T05:51:35;14.60;99.90
60309;DHT22;50313;52.894;6.492;2022-07-29T05:54:00;14.60;99.90
60309;DHT22;50313;52.894;6.492;2022-07-29T05:56:27;14.70;99.90
60309;DHT22;50313;52.894;6.492;2022-07-29T05:58:53;14.70;99.90
60309;DHT22;50313;52.894;6.492;2022-07-29T06:01:19;14.70;99.90
60309;DHT22;50313;52.894;6.492;2022-07-29T06:03:45;14.70;99.90
60309;DHT22;50313;52.894;6.492;2022-07-29T06:06:11;14.80;99.90
60309;DHT22;50313;52.894;6.492;2022-07-29T06:08:37;14.80;99.90
60309;DHT22;50313;52.894;6.492;2022-07-29T06:11:04;14.90;99.90
60309;DHT22;50313;52.894;6.492;2022-07-29T06:13:30;15.00;99.90
60309;DHT22;50313;52.894;6.492;2022-07-29T06:15:56;15.10;99.90
60309;DHT22;50313;52.894;6.492;2022-07-29T06:18:22;15.20;99.90
60309;DHT22;50313;52.894;6.492;2022-07-29T06:20:52;15.20;99.90
60309;DHT22;50313;52.894;6.492;2022-07-29T06:23:20;15.30;99.90
60309;DHT22;50313;52.894;6.492;2022-07-29T06:25:46;15.40;99.90
60309;DHT22;50313;52.894;6.492;2022-07-29T06:28:12;15.50;99.90
60309;DHT22;50313;52.894;6.492;2022-07-29T06:30:39;15.50;99.90
60309;DHT22;50313;52.894;6.492;2022-07-29T06:33:05;15.60;99.90
60309;DHT22;50313;52.894;6.492;2022-07-29T06:35:33;15.80;99.90
60309;DHT22;50313;52.894;6.492;2022-07-29T06:38:00;15.80;99.90
60309;DHT22;50313;52.894;6.492;2022-07-29T06:40:26;15.90;99.90
60309;DHT22;50313;52.894;6.492;2022-07-29T06:43:10;16.00;99.90
60309;DHT22;50313;52.894;6.492;2022-07-29T06:45:36;16.00;99.90
60309;DHT22;50313;52.894;6.492;2022-07-29T06:48:04;16.10;99.90
60309;DHT22;50313;52.894;6.492;2022-07-29T06:50:29;16.10;99.90
60309;DHT22;50313;52.894;6.492;2022-07-29T06:52:55;16.10;99.90
60309;DHT22;50313;52.894;6.492;2022-07-29T06:55:21;16.00;99.90
60309;DHT22;50313;52.894;6.492;2022-07-29T06:57:47;16.00;99.90
60309;DHT22;50313;52.894;6.492;2022-07-29T07:00:13;16.00;99.90
60309;DHT22;50313;52.894;6.492;2022-07-29T07:02:39;16.00;99.90
60309;DHT22;50313;52.894;6.492;2022-07-29T07:05:05;16.00;99.90
60309;DHT22;50313;52.894;6.492;2022-07-29T07:07:31;16.00;99.90
60309;DHT22;50313;52.894;6.492;2022-07-29T07:09:57;16.00;99.90
60309;DHT22;50313;52.894;6.492;2022-07-29T07:12:23;16.00;99.90
60309;DHT22;50313;52.894;6.492;2022-07-29T07:14:49;16.00;99.90
60309;DHT22;50313;52.894;6.492;2022-07-29T07:17:14;16.00;99.90
60309;DHT22;50313;52.894;6.492;2022-07-29T07:19:40;16.00;99.90
60309;DHT22;50313;52.894;6.492;2022-07-29T07:22:05;16.00;99.90
60309;DHT22;50313;52.894;6.492;2022-07-29T07:24:31;16.00;99.90
60309;DHT22;50313;52.894;6.492;2022-07-29T07:26:57;16.00;99.90
60309;DHT22;50313;52.894;6.492;2022-07-29T07:29:23;16.00;99.90
60309;DHT22;50313;52.894;6.492;2022-07-29T07:31:48;16.10;99.90
60309;DHT22;50313;52.894;6.492;2022-07-29T07:34:14;16.10;99.90
60309;DHT22;50313;52.894;6.492;2022-07-29T07:36:40;16.20;99.90
60309;DHT22;50313;52.894;6.492;2022-07-29T07:39:05;16.20;99.90
60309;DHT22;50313;52.894;6.492;2022-07-29T07:41:32;16.20;99.90
60309;DHT22;50313;52.894;6.492;2022-07-29T07:43:57;16.20;99.90
60309;DHT22;50313;52.894;6.492;2022-07-29T07:46:23;16.30;99.90
60309;DHT22;50313;52.894;6.492;2022-07-29T07:48:49;16.30;99.90
60309;DHT22;50313;52.894;6.492;2022-07-29T07:51:14;16.40;99.90
60309;DHT22;50313;52.894;6.492;2022-07-29T07:53:40;16.40;99.90
60309;DHT22;50313;52.894;6.492;2022-07-29T07:56:06;16.60;99.90
60309;DHT22;50313;52.894;6.492;2022-07-29T07:58:32;16.60;99.90
60309;DHT22;50313;52.894;6.492;2022-07-29T08:00:58;16.70;99.90
60309;DHT22;50313;52.894;6.492;2022-07-29T08:03:24;16.90;99.90
60309;DHT22;50313;52.894;6.492;2022-07-29T08:05:49;17.10;99.90
60309;DHT22;50313;52.894;6.492;2022-07-29T08:08:20;17.20;99.90
60309;DHT22;50313;52.894;6.492;2022-07-29T08:10:46;17.20;99.90
60309;DHT22;50313;52.894;6.492;2022-07-29T08:13:19;17.30;99.90
60309;DHT22;50313;52.894;6.492;2022-07-29T08:15:46;17.50;99.90
60309;DHT22;50313;52.894;6.492;2022-07-29T08:18:12;17.60;99.90
60309;DHT22;50313;52.894;6.492;2022-07-29T08:20:39;17.60;99.90
60309;DHT22;50313;52.894;6.492;2022-07-29T08:23:06;17.70;99.90
60309;DHT22;50313;52.894;6.492;2022-07-29T08:25:36;17.80;99.90
60309;DHT22;50313;52.894;6.492;2022-07-29T08:28:02;18.00;99.90
60309;DHT22;50313;52.894;6.492;2022-07-29T08:30:27;18.00;99.90
60309;DHT22;50313;52.894;6.492;2022-07-29T08:32:53;18.00;99.90
60309;DHT22;50313;52.894;6.492;2022-07-29T08:35:20;18.20;99.90
60309;DHT22;50313;52.894;6.492;2022-07-29T08:37:46;18.20;99.90
60309;DHT22;50313;52.894;6.492;2022-07-29T08:40:12;18.30;99.90
60309;DHT22;50313;52.894;6.492;2022-07-29T08:42:37;18.20;99.90
60309;DHT22;50313;52.894;6.492;2022-07-29T08:45:04;18.20;99.90
60309;DHT22;50313;52.894;6.492;2022-07-29T08:47:30;18.20;99.90
60309;DHT22;50313;52.894;6.492;2022-07-29T08:49:56;18.30;99.90
60309;DHT22;50313;52.894;6.492;2022-07-29T08:52:25;18.30;99.90
60309;DHT22;50313;52.894;6.492;2022-07-29T08:54:52;18.10;99.90
60309;DHT22;50313;52.894;6.492;2022-07-29T08:57:19;18.30;99.90
60309;DHT22;50313;52.894;6.492;2022-07-29T08:59:46;18.40;99.90
60309;DHT22;50313;52.894;6.492;2022-07-29T09:02:20;18.30;99.90
60309;DHT22;50313;52.894;6.492;2022-07-29T09:04:46;18.40;99.90
60309;DHT22;50313;52.894;6.492;2022-07-29T09:07:17;18.40;99.90
60309;DHT22;50313;52.894;6.492;2022-07-29T09:09:43;18.40;99.90
60309;DHT22;50313;52.894;6.492;2022-07-29T09:12:10;18.40;99.90
60309;DHT22;50313;52.894;6.492;2022-07-29T09:14:40;18.40;99.90
60309;DHT22;50313;52.894;6.492;2022-07-29T09:17:06;18.60;99.90
60309;DHT22;50313;52.894;6.492;2022-07-29T09:19:35;18.50;99.90
60309;DHT22;50313;52.894;6.492;2022-07-29T09:22:05;18.50;99.90
60309;DHT22;50313;52.894;6.492;2022-07-29T09:24:38;18.50;99.90
60309;DHT22;50313;52.894;6.492;2022-07-29T09:27:31;18.50;99.90
60309;DHT22;50313;52.894;6.492;2022-07-29T09:30:04;18.50;99.90
60309;DHT22;50313;52.894;6.492;2022-07-29T09:32:32;18.40;99.90
60309;DHT22;50313;52.894;6.492;2022-07-29T09:35:21;18.30;99.90
60309;DHT22;50313;52.894;6.492;2022-07-29T09:37:48;18.30;99.90
60309;DHT22;50313;52.894;6.492;2022-07-29T09:40:22;18.10;99.90
60309;DHT22;50313;52.894;6.492;2022-07-29T09:42:49;18.20;99.90
60309;DHT22;50313;52.894;6.492;2022-07-29T09:45:34;18.20;99.90
60309;DHT22;50313;52.894;6.492;2022-07-29T09:48:13;18.20;99.90
60309;DHT22;50313;52.894;6.492;2022-07-29T09:50:40;18.20;99.90
60309;DHT22;50313;52.894;6.492;2022-07-29T09:53:06;18.30;99.90
60309;DHT22;50313;52.894;6.492;2022-07-29T09:55:32;18.40;99.90
60309;DHT22;50313;52.894;6.492;2022-07-29T09:58:20;18.40;99.90
60309;DHT22;50313;52.894;6.492;2022-07-29T10:00:48;18.50;99.90
60309;DHT22;50313;52.894;6.492;2022-07-29T10:03:14;18.70;99.90
60309;DHT22;50313;52.894;6.492;2022-07-29T10:05:41;18.70;99.90
60309;DHT22;50313;52.894;6.492;2022-07-29T10:08:08;18.90;99.90
60309;DHT22;50313;52.894;6.492;2022-07-29T10:10:39;19.10;99.90
60309;DHT22;50313;52.894;6.492;2022-07-29T10:13:10;19.10;99.90
60309;DHT22;50313;52.894;6.492;2022-07-29T10:15:39;19.10;99.90
60309;DHT22;50313;52.894;6.492;2022-07-29T10:18:07;19.20;99.90
60309;DHT22;50313;52.894;6.492;2022-07-29T10:20:34;19.50;99.90
60309;DHT22;50313;52.894;6.492;2022-07-29T10:23:00;19.40;99.90
60309;DHT22;50313;52.894;6.492;2022-07-29T10:25:26;19.50;99.90
60309;DHT22;50313;52.894;6.492;2022-07-29T10:27:53;19.70;99.90
60309;DHT22;50313;52.894;6.492;2022-07-29T10:30:20;19.90;99.90
60309;DHT22;50313;52.894;6.492;2022-07-29T10:33:10;20.30;99.90
60309;DHT22;50313;52.894;6.492;2022-07-29T10:36:02;20.50;99.90
60309;DHT22;50313;52.894;6.492;2022-07-29T10:44:15;20.80;98.40
60309;DHT22;50313;52.894;6.492;2022-07-29T10:46:42;21.00;98.50
60309;DHT22;50313;52.894;6.492;2022-07-29T10:49:16;21.20;98.00
60309;DHT22;50313;52.894;6.492;2022-07-29T10:59:47;21.50;97.60
60309;DHT22;50313;52.894;6.492;2022-07-29T11:05:18;21.70;97.20
60309;DHT22;50313;52.894;6.492;2022-07-29T11:10:38;21.80;97.40
60309;DHT22;50313;52.894;6.492;2022-07-29T11:13:04;21.80;95.90
60309;DHT22;50313;52.894;6.492;2022-07-29T11:15:52;22.10;96.50
60309;DHT22;50313;52.894;6.492;2022-07-29T11:18:19;22.20;95.40
60309;DHT22;50313;52.894;6.492;2022-07-29T11:20:46;22.50;96.60
60309;DHT22;50313;52.894;6.492;2022-07-29T11:23:30;22.50;95.90
60309;DHT22;50313;52.894;6.492;2022-07-29T11:37:19;22.60;95.80
60309;DHT22;50313;52.894;6.492;2022-07-29T11:45:20;23.00;95.90
60309;DHT22;50313;52.894;6.492;2022-07-29T11:50:15;23.40;96.30
60309;DHT22;50313;52.894;6.492;2022-07-29T11:52:46;23.70;94.70
60309;DHT22;50313;52.894;6.492;2022-07-29T11:55:18;23.80;94.10
60309;DHT22;50313;52.894;6.492;2022-07-29T11:57:56;24.20;94.30
60309;DHT22;50313;52.894;6.492;2022-07-29T12:00:45;24.20;93.60
60309;DHT22;50313;52.894;6.492;2022-07-29T12:03:11;24.10;93.20
60309;DHT22;50313;52.894;6.492;2022-07-29T12:05:43;24.10;93.00
60309;DHT22;50313;52.894;6.492;2022-07-29T12:08:16;24.20;93.60
60309;DHT22;50313;52.894;6.492;2022-07-29T12:10:45;24.20;93.60
60309;DHT22;50313;52.894;6.492;2022-07-29T12:13:12;24.20;93.60
60309;DHT22;50313;52.894;6.492;2022-07-29T12:15:38;23.90;94.80
60309;DHT22;50313;52.894;6.492;2022-07-29T12:18:13;23.90;93.80
60309;DHT22;50313;52.894;6.492;2022-07-29T12:20:39;23.90;93.20
60309;DHT22;50313;52.894;6.492;2022-07-29T12:23:06;23.80;93.40
60309;DHT22;50313;52.894;6.492;2022-07-29T12:25:34;24.00;95.00
60309;DHT22;50313;52.894;6.492;2022-07-29T12:28:08;24.10;93.40
60309;DHT22;50313;52.894;6.492;2022-07-29T12:30:42;24.20;92.70
60309;DHT22;50313;52.894;6.492;2022-07-29T12:35:51;24.10;93.40
60309;DHT22;50313;52.894;6.492;2022-07-29T12:38:18;24.20;93.70
60309;DHT22;50313;52.894;6.492;2022-07-29T12:40:45;24.10;93.30
60309;DHT22;50313;52.894;6.492;2022-07-29T12:43:16;23.90;93.60
60309;DHT22;50313;52.894;6.492;2022-07-29T12:45:45;23.90;93.40
60309;DHT22;50313;52.894;6.492;2022-07-29T12:48:11;23.90;93.10
60309;DHT22;50313;52.894;6.492;2022-07-29T12:50:58;23.80;93.00
60309;DHT22;50313;52.894;6.492;2022-07-29T12:53:25;23.80;92.10
60309;DHT22;50313;52.894;6.492;2022-07-29T12:55:53;24.20;92.40
60309;DHT22;50313;52.894;6.492;2022-07-29T12:58:27;24.20;92.60
60309;DHT22;50313;52.894;6.492;2022-07-29T13:01:14;24.00;91.70
60309;DHT22;50313;52.894;6.492;2022-07-29T13:09:19;23.90;93.50
60309;DHT22;50313;52.894;6.492;2022-07-29T13:11:52;24.00;93.40
60309;DHT22;50313;52.894;6.492;2022-07-29T13:14:39;24.20;92.90
60309;DHT22;50313;52.894;6.492;2022-07-29T13:17:13;24.20;93.20
60309;DHT22;50313;52.894;6.492;2022-07-29T13:22:17;24.10;92.80
60309;DHT22;50313;52.894;6.492;2022-07-29T13:24:51;23.90;92.00
60309;DHT22;50313;52.894;6.492;2022-07-29T13:27:18;23.70;91.50
60309;DHT22;50313;52.894;6.492;2022-07-29T13:29:44;23.80;92.30
60309;DHT22;50313;52.894;6.492;2022-07-29T13:32:11;23.70;92.50
60309;DHT22;50313;52.894;6.492;2022-07-29T13:34:37;23.80;92.00
60309;DHT22;50313;52.894;6.492;2022-07-29T13:37:02;24.20;92.90
60309;DHT22;50313;52.894;6.492;2022-07-29T13:39:28;24.40;92.00
60309;DHT22;50313;52.894;6.492;2022-07-29T13:41:54;24.60;92.30
60309;DHT22;50313;52.894;6.492;2022-07-29T13:44:20;24.70;91.50
60309;DHT22;50313;52.894;6.492;2022-07-29T13:46:45;24.90;91.80
60309;DHT22;50313;52.894;6.492;2022-07-29T13:49:11;25.30;91.70
60309;DHT22;50313;52.894;6.492;2022-07-29T13:51:37;25.60;91.80
60309;DHT22;50313;52.894;6.492;2022-07-29T13:54:03;25.60;91.80
60309;DHT22;50313;52.894;6.492;2022-07-29T13:56:29;25.80;91.00
60309;DHT22;50313;52.894;6.492;2022-07-29T13:58:55;25.80;90.50
60309;DHT22;50313;52.894;6.492;2022-07-29T14:01:21;25.80;90.40
60309;DHT22;50313;52.894;6.492;2022-07-29T14:03:47;26.00;89.80
60309;DHT22;50313;52.894;6.492;2022-07-29T14:06:12;26.00;89.80
60309;DHT22;50313;52.894;6.492;2022-07-29T14:08:38;26.10;88.70
60309;DHT22;50313;52.894;6.492;2022-07-29T14:11:05;26.20;88.60
60309;DHT22;50313;52.894;6.492;2022-07-29T14:13:31;26.40;85.80
60309;DHT22;50313;52.894;6.492;2022-07-29T14:15:56;26.60;86.50
60309;DHT22;50313;52.894;6.492;2022-07-29T14:18:22;26.60;86.00
60309;DHT22;50313;52.894;6.492;2022-07-29T14:20:48;26.80;87.00
60309;DHT22;50313;52.894;6.492;2022-07-29T14:23:14;27.00;87.00
60309;DHT22;50313;52.894;6.492;2022-07-29T14:25:40;27.10;86.20
60309;DHT22;50313;52.894;6.492;2022-07-29T14:28:06;27.20;84.10
60309;DHT22;50313;52.894;6.492;2022-07-29T14:30:32;27.40;83.70
60309;DHT22;50313;52.894;6.492;2022-07-29T14:32:58;27.30;84.00
60309;DHT22;50313;52.894;6.492;2022-07-29T14:35:24;27.40;83.70
60309;DHT22;50313;52.894;6.492;2022-07-29T14:37:49;27.40;82.10
60309;DHT22;50313;52.894;6.492;2022-07-29T14:40:15;27.60;84.40
60309;DHT22;50313;52.894;6.492;2022-07-29T14:42:41;27.80;83.60
60309;DHT22;50313;52.894;6.492;2022-07-29T14:45:08;28.00;82.30
60309;DHT22;50313;52.894;6.492;2022-07-29T14:47:34;28.10;81.90
60309;DHT22;50313;52.894;6.492;2022-07-29T14:50:00;28.50;80.50
60309;DHT22;50313;52.894;6.492;2022-07-29T14:52:26;28.40;81.40
60309;DHT22;50313;52.894;6.492;2022-07-29T14:54:51;28.10;79.90
60309;DHT22;50313;52.894;6.492;2022-07-29T14:57:17;27.90;80.50
60309;DHT22;50313;52.894;6.492;2022-07-29T14:59:43;28.30;81.60
60309;DHT22;50313;52.894;6.492;2022-07-29T15:02:08;28.60;78.90
60309;DHT22;50313;52.894;6.492;2022-07-29T15:04:34;28.70;78.80
60309;DHT22;50313;52.894;6.492;2022-07-29T15:07:00;28.50;77.90
60309;DHT22;50313;52.894;6.492;2022-07-29T15:09:26;28.60;77.20
60309;DHT22;50313;52.894;6.492;2022-07-29T15:11:52;28.50;77.30
60309;DHT22;50313;52.894;6.492;2022-07-29T15:14:17;28.50;76.60
60309;DHT22;50313;52.894;6.492;2022-07-29T15:16:43;28.60;73.60
60309;DHT22;50313;52.894;6.492;2022-07-29T15:19:09;28.90;75.70
60309;DHT22;50313;52.894;6.492;2022-07-29T15:21:36;29.30;74.90
60309;DHT22;50313;52.894;6.492;2022-07-29T15:24:01;29.30;74.30
60309;DHT22;50313;52.894;6.492;2022-07-29T15:26:27;29.60;74.10
60309;DHT22;50313;52.894;6.492;2022-07-29T15:28:53;29.30;74.20
60309;DHT22;50313;52.894;6.492;2022-07-29T15:31:20;29.50;74.80
60309;DHT22;50313;52.894;6.492;2022-07-29T15:33:46;29.70;74.40
60309;DHT22;50313;52.894;6.492;2022-07-29T15:36:12;29.50;73.80
60309;DHT22;50313;52.894;6.492;2022-07-29T15:38:39;29.80;73.40
60309;DHT22;50313;52.894;6.492;2022-07-29T15:41:06;30.00;72.20
60309;DHT22;50313;52.894;6.492;2022-07-29T15:43:32;30.00;73.00
60309;DHT22;50313;52.894;6.492;2022-07-29T15:46:00;30.00;72.50
60309;DHT22;50313;52.894;6.492;2022-07-29T15:48:44;29.90;72.20
60309;DHT22;50313;52.894;6.492;2022-07-29T15:51:10;30.00;69.80
60309;DHT22;50313;52.894;6.492;2022-07-29T15:53:36;30.10;71.00
60309;DHT22;50313;52.894;6.492;2022-07-29T15:56:02;30.00;69.80
60309;DHT22;50313;52.894;6.492;2022-07-29T15:58:28;29.80;67.50
60309;DHT22;50313;52.894;6.492;2022-07-29T16:00:54;30.20;69.40
60309;DHT22;50313;52.894;6.492;2022-07-29T16:03:20;30.20;68.10
60309;DHT22;50313;52.894;6.492;2022-07-29T16:05:47;30.40;69.20
60309;DHT22;50313;52.894;6.492;2022-07-29T16:08:13;29.80;67.50
60309;DHT22;50313;52.894;6.492;2022-07-29T16:10:39;29.60;68.70
60309;DHT22;50313;52.894;6.492;2022-07-29T16:13:05;29.40;69.10
60309;DHT22;50313;52.894;6.492;2022-07-29T16:15:31;29.60;69.40
60309;DHT22;50313;52.894;6.492;2022-07-29T16:17:57;29.60;68.80
60309;DHT22;50313;52.894;6.492;2022-07-29T16:20:23;29.90;69.10
60309;DHT22;50313;52.894;6.492;2022-07-29T16:22:48;30.40;69.10
60309;DHT22;50313;52.894;6.492;2022-07-29T16:25:14;30.40;68.70
60309;DHT22;50313;52.894;6.492;2022-07-29T16:27:40;30.70;68.40
60309;DHT22;50313;52.894;6.492;2022-07-29T16:30:06;30.40;67.10
60309;DHT22;50313;52.894;6.492;2022-07-29T16:32:35;29.90;66.80
60309;DHT22;50313;52.894;6.492;2022-07-29T16:35:01;30.30;68.20
60309;DHT22;50313;52.894;6.492;2022-07-29T16:37:29;30.30;67.80
60309;DHT22;50313;52.894;6.492;2022-07-29T16:40:00;30.30;67.40
60309;DHT22;50313;52.894;6.492;2022-07-29T16:42:25;30.30;66.60
60309;DHT22;50313;52.894;6.492;2022-07-29T16:44:51;30.40;67.40
60309;DHT22;50313;52.894;6.492;2022-07-29T16:47:17;30.40;66.90